メインページ
METAR-TAF:

METAR-TAF

空港 :

オタワ, オンタリオ州, カナダ

オタワ・マクドナルド・カルティエ国際空港

緯度: 45-19N, 経度: 075-40W, 海抜: 116m

現時点の気象観測

当レポートは1時間12分前の10:00(UTC)に作成
の風 6kt
気温 18°C
湿度 94%
気圧 1017 hPa
視程: 24.1km
高度18000ftの雲は散在している

METAR: CYOW 201000Z 36006KT 15SM SCT180 18/17 A3004 RMK AC3 SLP173 DENSITY ALT 800FT

時間: 07:12 (11:12 UTC)

予報

当レポートは2時間34分前の08:38(UTC)に作成
予報は20日の 09時(UTC)から 21日の 06時(UTC)まで有効
北/北東の風 5kt
視程: 10km
晴天
確率 30%
20日の 09時(UTC)から 20日の 14時(UTC)まで
視程: 1.2km
高度300ftの千切れ雲あり
20日の 1400時(UTC)から
東/北東の風 5kt
視程: 10km
高度1500ftの雲は散在している
20日の 14時(UTC)から 20日の 17時(UTC)まで一時的に
高度1500ftの千切れ雲あり
20日の 1700時(UTC)から
北東の風 5kt
視程: 10km
高度3000ftの雲は散在している
20日の 2000時(UTC)から
北東の風 5kt
視程: 10km
高度3000ftの雲はほとんどない

TAF: CYOW 200838Z 2009/2106 02005KT P6SM SKC PROB30 2009/2014 3/4SM BR BKN003 FM201400 07005KT P6SM SCT015 TEMPO 2014/2017 BKN015 FM201700 05005KT P6SM SCT030 FM202000 04005KT P6SM FEW030 RMK NXT FCST BY 201200Z

4,000以上の空港の気象観測と天気予報(METAR報とTAF報)

利用可能な観測所は地図上に黄色い丸と赤い丸で示す。

丸の上にカーソルを重ねると観測所名を参照できる。

次にクリックすると気象観測と天気予報を参照できる。

マップの切り替え:黒色「×」印の緑ボタンをクリックして拡大、「-」印の緑ボタンをクリックして縮小、緑色の三角印をクリックして隣りの地図に切り替え


METAR-TAF: